createdAt,value
2022-09-23T00:01:14.494Z,14.55
2022-09-23T00:03:16.928Z,15.03
2022-09-23T00:05:19.276Z,13.10
2022-09-23T00:07:21.936Z,12.30
2022-09-23T00:09:24.712Z,12.43
2022-09-23T00:11:28.590Z,10.70
2022-09-23T00:13:30.819Z,10.40
2022-09-23T00:15:37.686Z,11.27
2022-09-23T00:17:40.812Z,12.05
2022-09-23T00:19:43.234Z,13.43
2022-09-23T00:21:45.691Z,21.53
2022-09-23T00:23:48.366Z,22.97
2022-09-23T00:25:58.353Z,17.63
2022-09-23T00:28:00.742Z,14.57
2022-09-23T00:30:04.746Z,13.77
2022-09-23T00:32:09.961Z,12.63
2022-09-23T00:34:12.281Z,11.17
2022-09-23T00:36:16.230Z,10.50
2022-09-23T00:38:18.465Z,10.88
2022-09-23T00:40:21.177Z,11.80
2022-09-23T00:42:27.058Z,11.90
2022-09-23T00:44:48.581Z,10.77
2022-09-23T00:46:51.096Z,17.13
2022-09-23T00:49:00.318Z,15.52
2022-09-23T00:51:02.545Z,13.50
2022-09-23T00:53:08.811Z,12.25
2022-09-23T00:55:15.950Z,12.37
2022-09-23T00:57:20.384Z,11.40
2022-09-23T00:59:24.671Z,10.03
2022-09-23T01:01:27.033Z,10.73
2022-09-23T01:03:29.335Z,10.13
2022-09-23T01:05:33.607Z,9.87
2022-09-23T01:07:35.871Z,10.07
2022-09-23T01:09:38.206Z,9.57
2022-09-23T01:11:47.302Z,9.90
2022-09-23T01:14:17.172Z,8.87
2022-09-23T01:16:44.355Z,7.20
2022-09-23T01:19:03.041Z,7.00
2022-09-23T01:21:24.829Z,6.23
2022-09-23T01:23:48.472Z,6.07
2022-09-23T01:26:25.456Z,6.00
2022-09-23T01:28:45.763Z,5.10
2022-09-23T01:31:15.014Z,4.37
2022-09-23T01:33:39.897Z,4.00
2022-09-23T01:35:53.256Z,4.23
2022-09-23T01:38:04.104Z,4.60
2022-09-23T01:40:32.525Z,4.10
2022-09-23T01:42:46.705Z,4.30
2022-09-23T01:44:57.874Z,4.77
2022-09-23T01:47:11.229Z,6.50
2022-09-23T01:49:23.192Z,7.17
2022-09-23T01:51:38.834Z,6.10
2022-09-23T01:53:54.502Z,5.47
2022-09-23T01:56:03.142Z,5.03
2022-09-23T01:58:15.333Z,5.30
2022-09-23T02:00:19.684Z,4.80
2022-09-23T02:02:32.922Z,5.90
2022-09-23T02:04:45.559Z,5.53
2022-09-23T02:06:55.688Z,5.23
2022-09-23T02:09:05.523Z,4.80
2022-09-23T02:11:11.287Z,4.40
2022-09-23T02:13:55.218Z,4.60
2022-09-23T02:16:02.387Z,4.30
2022-09-23T02:18:13.886Z,4.23
2022-09-23T02:20:23.110Z,4.00
2022-09-23T02:22:34.667Z,3.83
2022-09-23T02:24:39.105Z,3.97
2022-09-23T02:26:47.827Z,4.00
2022-09-23T02:29:18.075Z,3.70
2022-09-23T02:31:37.987Z,3.50
2022-09-23T02:33:46.804Z,3.63
2022-09-23T02:35:54.448Z,3.20
2022-09-23T02:38:08.666Z,3.57
2022-09-23T02:40:32.061Z,3.00
2022-09-23T02:43:08.294Z,3.80
2022-09-23T02:45:10.727Z,3.23
2022-09-23T02:47:12.855Z,3.73
2022-09-23T02:49:24.711Z,3.50
2022-09-23T02:51:29.043Z,3.60
2022-09-23T02:53:36.816Z,3.57
2022-09-23T02:55:39.768Z,3.57
2022-09-23T02:57:42.472Z,3.40
2022-09-23T02:59:46.291Z,3.50
2022-09-23T03:01:57.386Z,3.53
2022-09-23T03:04:36.885Z,3.80
2022-09-23T03:06:44.917Z,3.30
2022-09-23T03:08:58.516Z,3.10
2022-09-23T03:11:05.935Z,3.57
2022-09-23T03:13:35.741Z,2.80
2022-09-23T03:15:52.562Z,2.80
2022-09-23T03:18:14.689Z,3.40
2022-09-23T03:20:24.961Z,3.13
2022-09-23T03:22:33.641Z,3.97
2022-09-23T03:24:39.670Z,3.50
2022-09-23T03:26:46.845Z,4.87
2022-09-23T03:28:50.495Z,4.27
2022-09-23T03:30:54.690Z,5.37
2022-09-23T03:33:01.344Z,4.93
2022-09-23T03:35:05.318Z,5.07
2022-09-23T03:37:32.047Z,4.40
2022-09-23T03:39:56.254Z,5.53
2022-09-23T03:42:03.642Z,4.40
2022-09-23T03:44:08.290Z,5.33
2022-09-23T03:46:10.433Z,4.70
2022-09-23T03:48:15.310Z,5.17
2022-09-23T03:50:21.036Z,5.53
2022-09-23T03:52:25.228Z,6.47
2022-09-23T03:54:30.119Z,7.07
2022-09-23T03:56:32.508Z,6.33
2022-09-23T03:58:34.960Z,5.63
2022-09-23T04:00:37.692Z,6.13
2022-09-23T04:02:40.687Z,7.23
2022-09-23T04:04:43.898Z,5.73
2022-09-23T04:06:47.097Z,6.57
2022-09-23T04:08:49.657Z,6.67
2022-09-23T04:10:54.851Z,15.77
2022-09-23T04:12:57.505Z,17.53
2022-09-23T04:15:00.444Z,15.40
2022-09-23T04:17:02.967Z,14.30
2022-09-23T04:19:05.264Z,10.50
2022-09-23T04:21:07.558Z,7.87
2022-09-23T04:23:09.929Z,5.73
2022-09-23T04:25:15.194Z,5.50
2022-09-23T04:27:17.501Z,5.07
2022-09-23T04:29:20.631Z,5.30
2022-09-23T04:31:34.739Z,7.50
2022-09-23T04:33:38.125Z,6.17
2022-09-23T04:35:43.709Z,8.93
2022-09-23T04:37:49.478Z,10.90
2022-09-23T04:39:52.221Z,10.90
2022-09-23T04:42:00.026Z,9.85
2022-09-23T04:44:02.936Z,8.90
2022-09-23T04:46:07.551Z,7.30
2022-09-23T04:48:11.117Z,6.97
2022-09-23T04:50:13.800Z,7.80
2022-09-23T04:52:18.876Z,7.60
2022-09-23T04:54:21.044Z,6.33
2022-09-23T04:56:26.634Z,6.30
2022-09-23T04:58:29.692Z,5.83
2022-09-23T05:00:35.344Z,5.10
2022-09-23T05:02:43.510Z,33.63
2022-09-23T05:04:45.793Z,41.90
2022-09-23T05:06:48.370Z,35.13
2022-09-23T05:08:52.926Z,49.00
2022-09-23T05:11:05.349Z,61.73
2022-09-23T05:13:07.671Z,61.30
2022-09-23T05:15:10.456Z,71.10
2022-09-23T05:17:12.866Z,42.27
2022-09-23T05:19:15.639Z,27.40
2022-09-23T05:21:20.557Z,18.33
2022-09-23T05:23:24.112Z,11.53
2022-09-23T05:25:26.948Z,10.70
2022-09-23T05:27:29.654Z,7.67
2022-09-23T05:29:32.254Z,7.67
2022-09-23T05:31:34.928Z,6.83
2022-09-23T05:33:37.565Z,7.63
2022-09-23T05:35:40.426Z,7.13
2022-09-23T05:37:42.865Z,7.33
2022-09-23T05:39:46.785Z,6.30
2022-09-23T05:41:49.283Z,6.03
2022-09-23T05:43:53.275Z,5.57
2022-09-23T05:46:12.356Z,6.07
2022-09-23T05:48:14.811Z,6.20
2022-09-23T05:50:17.114Z,5.10
2022-09-23T05:52:19.424Z,4.80
2022-09-23T05:54:24.314Z,3.80
2022-09-23T05:56:28.177Z,4.73
2022-09-23T05:58:30.517Z,5.33
2022-09-23T06:00:33.151Z,4.20
2022-09-23T06:02:35.909Z,4.30
2022-09-23T06:04:38.730Z,5.07
2022-09-23T06:06:43.178Z,5.20
2022-09-23T06:08:46.218Z,5.70
2022-09-23T06:10:53.581Z,5.33
2022-09-23T06:12:56.958Z,5.10
2022-09-23T06:14:59.290Z,5.63
2022-09-23T06:17:04.416Z,5.00
2022-09-23T06:19:07.135Z,5.13
2022-09-23T06:21:13.387Z,6.57
2022-09-23T06:23:15.656Z,6.80
2022-09-23T06:25:19.786Z,6.20
2022-09-23T06:27:23.001Z,6.70
2022-09-23T06:29:24.960Z,5.50
2022-09-23T06:31:27.321Z,5.50
2022-09-23T06:33:36.641Z,5.53
2022-09-23T06:35:39.720Z,7.43
2022-09-23T06:37:41.953Z,8.05
2022-09-23T06:39:44.003Z,8.05
2022-09-23T06:41:48.717Z,6.72
2022-09-23T06:43:53.889Z,7.28
2022-09-23T06:45:58.098Z,6.32
2022-09-23T06:48:00.387Z,6.30
2022-09-23T06:50:02.881Z,5.70
2022-09-23T06:52:06.007Z,4.97
2022-09-23T06:54:08.518Z,5.03
2022-09-23T06:56:11.631Z,5.60
2022-09-23T06:58:14.137Z,4.95
2022-09-23T07:00:16.441Z,5.28
2022-09-23T07:02:21.241Z,5.22
2022-09-23T07:04:28.623Z,6.03
2022-09-23T07:06:31.557Z,5.97
2022-09-23T07:08:35.544Z,6.60
2022-09-23T07:10:37.944Z,6.50
2022-09-23T07:12:40.323Z,6.45
2022-09-23T07:14:42.695Z,7.38
2022-09-23T07:16:45.281Z,7.90
2022-09-23T07:18:47.651Z,9.77
2022-09-23T07:20:50.678Z,10.52
2022-09-23T07:22:53.415Z,9.15
2022-09-23T07:24:56.297Z,8.52
2022-09-23T07:26:58.522Z,7.55
2022-09-23T07:29:05.355Z,6.97
2022-09-23T07:31:13.371Z,6.72
2022-09-23T07:33:30.960Z,8.13
2022-09-23T07:35:35.035Z,8.38
2022-09-23T07:37:38.309Z,9.63
2022-09-23T07:39:42.132Z,10.98
2022-09-23T07:41:44.980Z,10.93
2022-09-23T07:43:49.844Z,9.93
2022-09-23T07:45:52.812Z,10.55
2022-09-23T07:47:55.983Z,11.20
2022-09-23T07:49:58.286Z,12.07
2022-09-23T07:52:00.422Z,11.48
2022-09-23T07:54:02.882Z,9.43
2022-09-23T07:56:06.860Z,8.80
2022-09-23T07:58:09.167Z,7.57
2022-09-23T08:00:16.545Z,7.68
2022-09-23T08:02:18.953Z,7.90
2022-09-23T08:04:28.575Z,7.82
2022-09-23T08:06:32.478Z,8.25
2022-09-23T08:08:35.960Z,8.48
2022-09-23T08:10:38.750Z,8.15
2022-09-23T08:12:41.045Z,9.27
2022-09-23T08:14:43.868Z,8.20
2022-09-23T08:16:47.259Z,8.35
2022-09-23T08:18:49.799Z,8.23
2022-09-23T08:20:52.294Z,8.25
2022-09-23T08:22:54.826Z,8.38
2022-09-23T08:24:58.583Z,8.63
2022-09-23T08:27:00.880Z,8.93
2022-09-23T08:29:05.660Z,18.63
2022-09-23T08:31:08.566Z,18.52
2022-09-23T08:33:14.249Z,13.52
2022-09-23T08:35:17.020Z,9.95
2022-09-23T08:37:19.134Z,7.57
2022-09-23T08:39:23.207Z,7.88
2022-09-23T08:41:44.106Z,22.25
2022-09-23T08:43:51.606Z,19.85
2022-09-23T08:45:56.287Z,12.13
2022-09-23T08:48:22.616Z,25.58
2022-09-23T08:50:37.387Z,27.63
2022-09-23T08:52:57.227Z,30.30
2022-09-23T08:54:59.627Z,22.30
2022-09-23T08:57:05.350Z,12.32
2022-09-23T08:59:52.158Z,12.73
2022-09-23T09:02:21.651Z,29.90
2022-09-23T09:04:53.262Z,31.02
2022-09-23T09:07:32.199Z,29.98
2022-09-23T09:09:38.078Z,35.78
2022-09-23T09:11:48.643Z,35.13
2022-09-23T09:14:04.732Z,54.45
2022-09-23T09:16:58.323Z,53.42
2022-09-23T09:18:58.716Z,37.15
2022-09-23T09:21:09.972Z,37.55
2022-09-23T09:23:22.917Z,33.22
2022-09-23T09:25:47.201Z,29.38
2022-09-23T09:27:50.305Z,19.90
2022-09-23T09:29:57.643Z,11.90
2022-09-23T09:32:00.202Z,7.40
2022-09-23T09:34:16.618Z,5.70
2022-09-23T09:36:27.585Z,5.88
2022-09-23T09:38:29.887Z,5.90
2022-09-23T09:40:34.733Z,5.43
2022-09-23T09:42:42.119Z,5.18
2022-09-23T09:44:58.761Z,3.78
2022-09-23T09:47:36.769Z,4.32
2022-09-23T09:49:49.600Z,3.70
2022-09-23T09:52:13.490Z,4.40
2022-09-23T09:54:18.391Z,3.65
2022-09-23T09:56:27.445Z,3.28
2022-09-23T09:58:54.646Z,3.00
2022-09-23T10:00:57.271Z,2.92
2022-09-23T10:03:15.247Z,2.60
2022-09-23T10:05:26.178Z,4.63
2022-09-23T10:07:31.292Z,7.95
2022-09-23T10:09:36.645Z,7.30
2022-09-23T10:11:40.127Z,5.97
2022-09-23T10:14:00.627Z,4.85
2022-09-23T10:16:04.247Z,3.72
2022-09-23T10:18:21.019Z,3.35
2022-09-23T10:20:24.856Z,3.33
2022-09-23T10:22:32.963Z,6.57
2022-09-23T10:28:55.812Z,4.20
2022-09-23T10:31:06.412Z,4.57
2022-09-23T10:33:28.142Z,3.72
2022-09-23T10:35:34.834Z,4.97
2022-09-23T10:38:02.489Z,3.97
2022-09-23T10:40:53.068Z,3.83
2022-09-23T10:43:36.186Z,3.85
2022-09-23T10:46:09.444Z,2.95
2022-09-23T10:48:34.556Z,3.42
2022-09-23T10:50:50.992Z,28.45
2022-09-23T10:53:18.976Z,25.75
2022-09-23T10:55:43.229Z,16.23
2022-09-23T10:57:45.854Z,15.48
2022-09-23T11:00:09.188Z,21.98
2022-09-23T11:02:49.478Z,29.73
2022-09-23T11:05:14.791Z,50.20
2022-09-23T11:07:40.834Z,49.50
2022-09-23T11:10:08.866Z,34.28
2022-09-23T11:12:25.746Z,21.15
2022-09-23T11:14:50.574Z,14.50
2022-09-23T11:17:15.654Z,14.00
2022-09-23T11:19:24.531Z,17.48
2022-09-23T11:21:49.834Z,21.52
2022-09-23T11:24:00.495Z,19.35
2022-09-23T11:26:05.778Z,16.15
2022-09-23T11:28:47.046Z,9.82
2022-09-23T11:31:15.090Z,6.65
2022-09-23T11:33:39.674Z,4.60
2022-09-23T11:35:53.371Z,4.18
2022-09-23T11:38:08.338Z,3.88
2022-09-23T11:40:35.263Z,3.28
2022-09-23T11:42:55.608Z,4.72
2022-09-23T11:45:21.579Z,4.63
2022-09-23T11:47:35.317Z,6.03
2022-09-23T11:50:02.377Z,7.30
2022-09-23T11:52:29.856Z,4.57
2022-09-23T11:54:58.033Z,6.72
2022-09-23T11:57:04.294Z,9.27
2022-09-23T11:59:12.634Z,7.80
2022-09-23T12:01:34.982Z,6.57
2022-09-23T12:04:10.069Z,4.57
2022-09-23T12:06:31.205Z,3.95
2022-09-23T12:08:37.411Z,6.22
2022-09-23T12:11:01.741Z,5.85
2022-09-23T12:13:16.287Z,5.88
2022-09-23T12:15:28.613Z,5.10
2022-09-23T12:17:49.131Z,5.10
2022-09-23T12:20:09.949Z,4.68
2022-09-23T12:22:33.357Z,4.30
2022-09-23T12:24:57.015Z,4.30
2022-09-23T12:27:06.528Z,4.38
2022-09-23T12:29:14.282Z,3.67
2022-09-23T12:31:21.222Z,4.47
2022-09-23T12:33:33.222Z,4.35
2022-09-23T12:35:44.868Z,3.65
2022-09-23T12:37:48.656Z,3.17
2022-09-23T12:39:50.883Z,2.42
2022-09-23T12:42:18.711Z,2.35
2022-09-23T12:44:32.012Z,2.25
2022-09-23T12:46:34.826Z,3.65
2022-09-23T12:49:27.652Z,4.10
2022-09-23T12:51:36.542Z,5.80
2022-09-23T12:53:39.086Z,6.20
2022-09-23T12:55:47.329Z,5.85
2022-09-23T12:57:50.206Z,6.22
2022-09-23T12:59:57.473Z,6.43
2022-09-23T13:02:34.591Z,6.78
2022-09-23T13:05:01.149Z,8.20
2022-09-23T13:07:09.392Z,7.40
2022-09-23T13:09:21.677Z,5.93
2022-09-23T13:11:31.824Z,4.65
2022-09-23T13:13:46.354Z,4.80
2022-09-23T13:15:48.785Z,4.47
2022-09-23T13:17:51.086Z,3.80
2022-09-23T13:20:07.265Z,3.70
2022-09-23T13:22:11.291Z,6.22
2022-09-23T13:24:13.471Z,7.75
2022-09-23T13:26:16.455Z,8.40
2022-09-23T13:28:27.589Z,14.68
2022-09-23T13:30:30.571Z,49.40
2022-09-23T13:32:40.862Z,63.05
2022-09-23T13:34:47.411Z,49.42
2022-09-23T13:36:49.541Z,40.22
2022-09-23T13:38:51.400Z,41.53
2022-09-23T13:41:03.506Z,43.53
2022-09-23T13:43:11.080Z,50.17
2022-09-23T13:45:18.927Z,50.67
2022-09-23T13:47:21.661Z,49.50
2022-09-23T13:49:26.629Z,31.23
2022-09-23T13:51:35.969Z,22.60
2022-09-23T13:53:38.522Z,17.95
2022-09-23T13:55:41.593Z,8.35
2022-09-23T13:57:43.493Z,5.82
2022-09-23T13:59:45.600Z,13.40
2022-09-23T14:01:47.729Z,10.93
2022-09-23T14:03:51.476Z,9.77
2022-09-23T14:05:56.725Z,9.43
2022-09-23T14:07:59.967Z,7.00
2022-09-23T14:10:02.224Z,5.32
2022-09-23T14:12:06.877Z,9.38
2022-09-23T14:14:15.256Z,10.88
2022-09-23T14:16:18.318Z,10.70
2022-09-23T14:18:32.627Z,9.75
2022-09-23T14:20:46.237Z,11.40
2022-09-23T14:22:48.344Z,14.27
2022-09-23T14:24:51.318Z,13.88
2022-09-23T14:27:14.628Z,14.65
2022-09-23T14:29:23.946Z,14.98
2022-09-23T14:31:26.327Z,16.90
2022-09-23T14:33:32.797Z,17.65
2022-09-23T14:35:46.749Z,17.50
2022-09-23T14:38:31.937Z,19.35
2022-09-23T14:40:37.306Z,23.75
2022-09-23T14:42:42.438Z,24.73
2022-09-23T14:44:50.543Z,24.40
2022-09-23T14:46:59.610Z,15.65
2022-09-23T14:49:06.030Z,11.32
2022-09-23T14:51:14.476Z,8.30
2022-09-23T14:53:24.777Z,9.25
2022-09-23T14:55:29.338Z,8.02
2022-09-23T14:57:32.064Z,7.88
2022-09-23T14:59:37.056Z,7.97
2022-09-23T15:01:39.754Z,6.35
2022-09-23T15:03:50.287Z,5.20
2022-09-23T15:05:58.477Z,4.40
2022-09-23T15:08:03.121Z,4.82
2022-09-23T15:10:23.828Z,5.57
2022-09-23T15:12:30.304Z,6.70
2022-09-23T15:14:41.056Z,6.28
2022-09-23T15:16:43.520Z,8.25
2022-09-23T15:18:46.462Z,9.85
2022-09-23T15:20:55.775Z,10.23
2022-09-23T15:22:58.123Z,10.07
2022-09-23T15:25:17.298Z,9.15
2022-09-23T15:27:32.791Z,9.18
2022-09-23T15:29:35.502Z,8.25
2022-09-23T15:31:41.133Z,6.90
2022-09-23T15:33:51.722Z,5.70
2022-09-23T15:35:54.968Z,4.80
2022-09-23T15:37:59.057Z,5.13
2022-09-23T15:40:01.507Z,5.25
2022-09-23T15:42:03.879Z,5.35
2022-09-23T15:44:14.042Z,7.47
2022-09-23T15:46:28.796Z,7.90
2022-09-23T15:48:39.696Z,8.60
2022-09-23T15:50:43.025Z,8.68
2022-09-23T15:52:45.554Z,7.22
2022-09-23T15:54:47.953Z,6.65
2022-09-23T15:56:50.027Z,5.90
2022-09-23T15:58:52.171Z,5.40
2022-09-23T16:00:56.942Z,4.50
2022-09-23T16:02:59.201Z,3.50
2022-09-23T16:05:06.111Z,3.60
2022-09-23T16:07:16.953Z,3.28
2022-09-23T16:09:19.207Z,2.97
2022-09-23T16:11:27.043Z,3.25
2022-09-23T16:13:29.809Z,2.90
2022-09-23T16:15:33.239Z,2.60
2022-09-23T16:17:38.026Z,2.95
2022-09-23T16:19:40.610Z,2.78
2022-09-23T16:21:43.631Z,2.90
2022-09-23T16:23:49.379Z,10.88
2022-09-23T16:25:54.578Z,9.02
2022-09-23T16:27:57.479Z,34.85
2022-09-23T16:29:59.845Z,44.70
2022-09-23T16:32:05.013Z,47.88
2022-09-23T16:34:10.039Z,46.58
2022-09-23T16:36:29.595Z,50.15
2022-09-23T16:38:32.502Z,43.80
2022-09-23T16:40:35.618Z,41.85
2022-09-23T16:42:39.406Z,38.10
2022-09-23T16:44:41.756Z,37.15
2022-09-23T16:46:43.928Z,33.28
2022-09-23T16:48:52.148Z,32.55
2022-09-23T16:50:55.230Z,30.83
2022-09-23T16:52:57.944Z,28.70
2022-09-23T16:55:00.301Z,19.98
2022-09-23T16:57:02.624Z,16.77
2022-09-23T16:59:08.078Z,13.80
2022-09-23T17:01:34.463Z,11.95
2022-09-23T17:03:42.668Z,10.88
2022-09-23T17:05:46.781Z,11.57
2022-09-23T17:07:52.106Z,10.85
2022-09-23T17:09:57.359Z,10.63
2022-09-23T17:12:26.995Z,9.75
2022-09-23T17:14:31.715Z,8.27
2022-09-23T17:16:35.354Z,5.38
2022-09-23T17:18:39.136Z,5.43
2022-09-23T17:20:41.763Z,5.13
2022-09-23T17:22:47.090Z,5.13
2022-09-23T17:24:49.670Z,4.50
2022-09-23T17:26:53.242Z,4.82
2022-09-23T17:28:57.925Z,3.90
2022-09-23T17:31:02.415Z,4.57
2022-09-23T17:33:04.342Z,4.93
2022-09-23T17:35:07.377Z,4.10
2022-09-23T17:37:09.459Z,4.55
2022-09-23T17:39:11.431Z,4.28
2022-09-23T17:41:14.578Z,7.20
2022-09-23T17:43:24.982Z,11.65
2022-09-23T17:45:27.137Z,11.20
2022-09-23T17:47:29.160Z,9.93
2022-09-23T17:49:35.610Z,10.57
2022-09-23T17:51:38.028Z,9.60
2022-09-23T17:53:42.367Z,8.98
2022-09-23T17:55:44.358Z,9.02
2022-09-23T17:57:51.717Z,10.80
2022-09-23T17:59:53.841Z,12.43
2022-09-23T18:01:56.007Z,16.65
2022-09-23T18:04:04.211Z,22.55
2022-09-23T18:06:14.686Z,21.55
2022-09-23T18:08:17.113Z,20.35
2022-09-23T18:10:19.526Z,17.42
2022-09-23T18:12:26.554Z,15.93
2022-09-23T18:14:32.438Z,13.13
2022-09-23T18:16:39.904Z,11.50
2022-09-23T18:18:44.872Z,9.15
2022-09-23T18:20:47.178Z,10.13
2022-09-23T18:22:49.418Z,11.95
2022-09-23T18:24:51.683Z,13.23
2022-09-23T18:27:00.066Z,14.30
2022-09-23T18:29:03.065Z,14.60
2022-09-23T18:31:05.355Z,14.35
2022-09-23T18:33:08.304Z,13.80
2022-09-23T18:35:11.280Z,12.25
2022-09-23T18:37:16.044Z,12.80
2022-09-23T18:39:19.136Z,12.88
2022-09-23T18:41:22.348Z,12.93
2022-09-23T18:43:40.578Z,14.23
2022-09-23T18:45:55.661Z,14.20
2022-09-23T18:48:16.661Z,14.93
2022-09-23T18:50:37.736Z,17.67
2022-09-23T18:52:39.964Z,15.27
2022-09-23T18:54:42.772Z,13.13
2022-09-23T18:56:44.879Z,11.07
2022-09-23T18:58:52.067Z,11.30
2022-09-23T19:00:54.276Z,10.98
2022-09-23T19:02:59.118Z,10.60
2022-09-23T19:05:02.227Z,11.05
2022-09-23T19:07:05.752Z,11.30
2022-09-23T19:09:08.115Z,9.95
2022-09-23T19:11:12.976Z,9.38
2022-09-23T19:13:15.440Z,9.68
2022-09-23T19:15:17.784Z,10.77
2022-09-23T19:17:19.910Z,15.50
2022-09-23T19:19:21.852Z,14.85
2022-09-23T19:21:24.373Z,20.52
2022-09-23T19:23:34.997Z,21.00
2022-09-23T19:25:37.202Z,20.38
2022-09-23T19:27:40.328Z,19.13
2022-09-23T19:29:42.573Z,17.52
2022-09-23T19:31:44.713Z,16.40
2022-09-23T19:33:59.371Z,14.75
2022-09-23T19:36:01.540Z,14.25
2022-09-23T19:38:03.905Z,16.55
2022-09-23T19:40:06.605Z,15.38
2022-09-23T19:42:10.045Z,13.90
2022-09-23T19:44:12.517Z,12.95
2022-09-23T19:46:15.606Z,12.25
2022-09-23T19:48:17.708Z,11.70
2022-09-23T19:50:20.589Z,11.43
2022-09-23T19:52:22.942Z,10.13
2022-09-23T19:54:26.762Z,9.98
2022-09-23T19:56:33.266Z,10.60
2022-09-23T19:58:35.779Z,9.38
2022-09-23T20:00:37.838Z,8.82
2022-09-23T20:02:40.334Z,9.20
2022-09-23T20:04:42.664Z,9.52
2022-09-23T20:06:46.144Z,10.10
2022-09-23T20:08:49.460Z,9.23
2022-09-23T20:10:51.358Z,10.00
2022-09-23T20:12:53.876Z,9.55
2022-09-23T20:14:55.851Z,8.82
2022-09-23T20:17:00.210Z,10.65
2022-09-23T20:19:04.127Z,12.35
2022-09-23T20:21:07.277Z,13.00
2022-09-23T20:23:09.862Z,15.75
2022-09-23T20:25:14.643Z,15.82
2022-09-23T20:27:16.799Z,15.27
2022-09-23T20:29:19.296Z,15.45
2022-09-23T20:31:22.690Z,16.80
2022-09-23T20:33:24.760Z,14.57
2022-09-23T20:35:26.744Z,13.82
2022-09-23T20:37:30.786Z,14.27
2022-09-23T20:39:32.678Z,13.75
2022-09-23T20:41:38.017Z,15.75
2022-09-23T20:43:40.680Z,15.57
2022-09-23T20:45:50.165Z,12.93
2022-09-23T20:47:52.222Z,13.73
2022-09-23T20:49:54.179Z,12.38
2022-09-23T20:51:56.102Z,14.85
2022-09-23T20:53:58.046Z,15.50
2022-09-23T20:56:00.926Z,13.80
2022-09-23T20:58:03.653Z,12.15
2022-09-23T21:00:07.887Z,10.95
2022-09-23T21:02:11.123Z,10.90
2022-09-23T21:04:13.312Z,10.27
2022-09-23T21:06:17.111Z,10.40
2022-09-23T21:08:19.694Z,9.77
2022-09-23T21:10:22.912Z,9.30
2022-09-23T21:12:24.756Z,8.82
2022-09-23T21:14:26.881Z,9.60
2022-09-23T21:16:29.996Z,9.77
2022-09-23T21:18:32.215Z,9.52
2022-09-23T21:20:34.327Z,8.90
2022-09-23T21:22:36.897Z,9.55
2022-09-23T21:25:25.719Z,9.45
2022-09-23T21:27:04.072Z,9.20
2022-09-23T21:29:06.998Z,9.18
2022-09-23T21:31:12.189Z,9.27
2022-09-23T21:33:15.158Z,8.75
2022-09-23T21:35:18.949Z,9.77
2022-09-23T21:37:21.835Z,9.32
2022-09-23T21:39:23.886Z,12.95
2022-09-23T21:41:26.046Z,10.18
2022-09-23T21:43:32.615Z,11.10
2022-09-23T21:45:34.648Z,10.80
2022-09-23T21:47:40.014Z,10.30
2022-09-23T21:49:44.853Z,9.80
2022-09-23T21:51:55.159Z,10.68
2022-09-23T21:53:58.559Z,8.45
2022-09-23T21:56:12.383Z,8.27
2022-09-23T21:58:16.026Z,9.02
2022-09-23T22:00:18.003Z,9.10
2022-09-23T22:02:20.617Z,7.90
2022-09-23T22:04:22.864Z,8.60
2022-09-23T22:06:27.530Z,7.63
2022-09-23T22:08:37.106Z,7.97
2022-09-23T22:10:39.215Z,7.63
2022-09-23T22:12:41.412Z,7.65
2022-09-23T22:14:46.218Z,7.20
2022-09-23T22:16:48.205Z,6.93
2022-09-23T22:18:52.596Z,7.30
2022-09-23T22:20:57.952Z,6.15
2022-09-23T22:23:00.558Z,6.90
2022-09-23T22:25:03.074Z,6.20
2022-09-23T22:27:07.869Z,5.88
2022-09-23T22:29:33.647Z,6.68
2022-09-23T22:31:54.703Z,6.32
2022-09-23T22:33:57.275Z,5.68
2022-09-23T22:36:03.999Z,6.22
2022-09-23T22:38:06.058Z,5.90
2022-09-23T22:40:11.749Z,6.13
2022-09-23T22:42:14.482Z,5.88
2022-09-23T22:44:18.908Z,6.15
2022-09-23T22:46:23.055Z,6.05
2022-09-23T22:48:27.479Z,6.43
2022-09-23T22:50:29.806Z,5.35
2022-09-23T22:52:33.605Z,6.00
2022-09-23T22:54:36.344Z,5.63
2022-09-23T22:56:38.867Z,5.50
2022-09-23T22:58:41.298Z,5.82
2022-09-23T23:00:43.749Z,6.15
2022-09-23T23:02:48.572Z,6.22
2022-09-23T23:04:51.044Z,5.72
2022-09-23T23:06:53.459Z,5.63
2022-09-23T23:09:00.398Z,5.78
2022-09-23T23:11:10.337Z,6.70
2022-09-23T23:13:12.822Z,6.15
2022-09-23T23:15:15.830Z,6.20
2022-09-23T23:17:19.042Z,6.35
2022-09-23T23:19:21.696Z,5.80
2022-09-23T23:21:28.908Z,5.45
2022-09-23T23:23:31.247Z,6.28
2022-09-23T23:25:33.599Z,6.05
2022-09-23T23:27:35.923Z,6.20
2022-09-23T23:29:38.130Z,5.72
2022-09-23T23:31:41.382Z,6.65
2022-09-23T23:33:44.759Z,6.30
2022-09-23T23:35:53.198Z,6.18
2022-09-23T23:37:55.586Z,6.03
2022-09-23T23:39:58.064Z,5.88
2022-09-23T23:42:05.124Z,6.25
2022-09-23T23:44:08.256Z,5.85
2022-09-23T23:46:11.743Z,5.45
2022-09-23T23:48:16.374Z,5.65
2022-09-23T23:50:18.372Z,6.30
2022-09-23T23:52:20.586Z,5.97
2022-09-23T23:54:22.646Z,5.38
2022-09-23T23:56:26.498Z,5.68
2022-09-23T23:58:29.274Z,5.65
